Time;durP1;ratioP1;P1;durP2;ratioP2;P2;SDS_P1;SDS_P2;PMS_P1;PMS_P2;Temp;Humidity;BMP_temperature;BMP_pressure;BME280_temperature;BME280_humidity;BME280_pressure;Samples;Min_cycle;Max_cycle;Signal;HPM_P1;HPM_P2
2022/06/06 00:02:00;;;;;;;11.02;6.70;;;;;;;18.60;100.00;93091.38;5101303;28;20052;-88
2022/06/06 00:04:29;;;;;;;10.82;6.13;;;;;;;18.38;100.00;93088.00;5100811;28;20072;-88
2022/06/06 00:06:58;;;;;;;10.85;6.28;;;;;;;18.14;100.00;93067.75;5100962;28;20086;-89
2022/06/06 00:09:26;;;;;;;11.40;6.32;;;;;;;17.99;100.00;93070.31;5101783;28;20105;-88
2022/06/06 00:11:55;;;;;;;10.18;5.75;;;;;;;17.99;100.00;93060.69;5099060;28;20044;-87
2022/06/06 00:14:26;;;;;;;8.13;4.85;;;;;;;17.91;100.00;93058.59;5100972;28;20542;-89
2022/06/06 00:16:55;;;;;;;7.03;4.18;;;;;;;17.86;100.00;93063.78;5096528;28;20048;-89
2022/06/06 00:19:22;;;;;;;8.43;4.32;;;;;;;17.74;100.00;93057.03;5100895;28;20100;-87
2022/06/06 00:21:53;;;;;;;7.13;4.10;;;;;;;17.60;100.00;93058.56;5100601;28;20386;-87
2022/06/06 00:24:20;;;;;;;7.82;4.45;;;;;;;17.68;100.00;93045.06;5100979;28;20047;-88
2022/06/06 00:26:47;;;;;;;7.32;4.47;;;;;;;17.72;100.00;93038.31;5100667;28;20048;-88
2022/06/06 00:29:18;;;;;;;7.50;4.70;;;;;;;17.76;100.00;93021.19;5101236;28;20075;-87
2022/06/06 00:37:20;;;;;;;5.38;4.53;;;;;;;18.28;100.00;93005.59;5099170;28;20487;-87
2022/06/06 00:39:47;;;;;;;9.85;4.63;;;;;;;18.41;100.00;92990.50;5099046;28;20063;-88
2022/06/06 00:42:20;;;;;;;8.63;4.70;;;;;;;18.48;100.00;92996.22;5098069;28;20044;-88
2022/06/06 00:44:48;;;;;;;7.53;4.75;;;;;;;18.63;100.00;92999.81;5098911;28;20059;-88
2022/06/06 00:47:20;;;;;;;6.20;4.20;;;;;;;18.68;100.00;92992.78;5097576;28;20075;-88
2022/06/06 00:49:52;;;;;;;5.90;4.50;;;;;;;18.68;100.00;92979.75;5099188;28;20093;-88
2022/06/06 00:52:25;;;;;;;6.57;4.57;;;;;;;18.73;100.00;92985.97;5099307;28;20051;-87
2022/06/06 00:54:56;;;;;;;7.50;4.50;;;;;;;18.71;100.00;92991.47;5098679;28;20093;-87
2022/06/06 00:57:28;;;;;;;8.35;4.60;;;;;;;18.79;100.00;92993.50;5100248;28;20051;-87
2022/06/06 00:59:55;;;;;;;8.07;5.03;;;;;;;18.85;100.00;92988.28;5099988;28;20040;-87
2022/06/06 01:02:22;;;;;;;8.10;4.95;;;;;;;18.85;100.00;92975.28;5100259;28;20044;-86
2022/06/06 01:04:50;;;;;;;8.25;4.93;;;;;;;19.02;100.00;92982.75;5100550;28;20093;-86
2022/06/06 01:07:19;;;;;;;7.85;4.30;;;;;;;18.99;100.00;92957.25;5100365;28;20401;-85
2022/06/06 01:09:49;;;;;;;6.82;3.75;;;;;;;19.13;100.00;92955.66;5100682;28;20044;-86
2022/06/06 01:12:24;;;;;;;8.50;3.95;;;;;;;19.13;100.00;92947.06;5100431;28;20482;-86
2022/06/06 01:14:55;;;;;;;7.37;4.40;;;;;;;19.19;100.00;92957.19;5088333;28;20047;-85
2022/06/06 01:17:35;;;;;;;6.60;4.22;;;;;;;19.23;100.00;92968.63;5098513;28;20036;-86
2022/06/06 01:20:21;;;;;;;5.95;3.58;;;;;;;19.20;100.00;92982.16;5098946;28;20044;-87
2022/06/06 01:23:18;;;;;;;;;;;;;;;19.28;100.00;93058.94;5097594;28;20089;-85
2022/06/06 01:26:10;;;;;;;11.52;5.70;;;;;;;18.45;100.00;93084.34;5099530;28;19959;-86
2022/06/06 01:28:50;;;;;;;24.88;9.63;;;;;;;18.55;100.00;93082.53;5097943;28;20128;-84
2022/06/06 01:31:23;;;;;;;24.35;10.15;;;;;;;18.68;100.00;93106.44;5099848;28;20078;-86
2022/06/06 01:33:53;;;;;;;13.50;5.38;;;;;;;18.74;100.00;93151.47;5096444;28;20519;-84
2022/06/06 01:36:21;;;;;;;17.70;6.03;;;;;;;18.68;100.00;93169.69;5097537;28;20055;-91
2022/06/06 01:38:49;;;;;;;16.63;6.25;;;;;;;18.44;100.00;93159.00;5094444;28;20447;-85
2022/06/06 01:41:23;;;;;;;16.38;6.90;;;;;;;18.36;100.00;93129.09;5079321;28;20085;-83
2022/06/06 01:43:56;;;;;;;17.95;6.05;;;;;;;18.28;100.00;93109.59;5087089;28;20407;-86
2022/06/06 01:46:28;;;;;;;11.88;5.07;;;;;;;18.28;100.00;93120.00;5091255;28;20040;-84
2022/06/06 01:48:56;;;;;;;22.10;8.70;;;;;;;18.29;100.00;93092.19;5087806;28;20472;-84
2022/06/06 01:51:27;;;;;;;18.67;7.93;;;;;;;18.46;100.00;93109.34;5087997;28;20036;-85
2022/06/06 01:53:55;;;;;;;19.15;8.20;;;;;;;18.49;100.00;93121.81;5091532;28;20489;-86
2022/06/06 01:56:26;;;;;;;15.65;7.40;;;;;;;18.62;100.00;93131.72;5085433;28;20092;-85
2022/06/06 01:58:54;;;;;;;14.63;6.75;;;;;;;18.66;100.00;93124.16;5088399;28;20082;-85
2022/06/06 02:01:21;;;;;;;12.27;5.60;;;;;;;18.64;100.00;93114.00;5096822;28;20093;-90
2022/06/06 02:03:48;;;;;;;8.07;4.40;;;;;;;18.56;100.00;93098.91;5099303;28;20044;-83
2022/06/06 02:06:15;;;;;;;10.00;4.07;;;;;;;18.52;100.00;93123.91;5100630;28;20052;-84
2022/06/06 02:08:42;;;;;;;9.15;3.90;;;;;;;18.58;100.00;93129.88;5097102;27;20104;-83
2022/06/06 02:11:10;;;;;;;9.98;4.50;;;;;;;18.58;100.00;93129.88;5099563;28;20122;-83
2022/06/06 02:13:37;;;;;;;12.07;4.30;;;;;;;18.52;100.00;93122.06;5095177;28;20135;-85
2022/06/06 02:16:06;;;;;;;9.90;4.70;;;;;;;18.44;100.00;93109.59;5098334;28;20086;-83
2022/06/06 02:18:33;;;;;;;6.88;3.72;;;;;;;18.62;100.00;93138.72;5098874;28;20039;-85
2022/06/06 02:21:01;;;;;;;10.82;4.15;;;;;;;18.70;100.00;93148.59;5097215;28;20044;-84
2022/06/06 02:23:28;;;;;;;6.75;3.15;;;;;;;18.70;100.00;93149.38;5098887;28;20039;-85
2022/06/06 02:25:55;;;;;;;11.30;3.75;;;;;;;18.76;100.00;93133.75;5102621;28;20043;-84
2022/06/06 02:28:22;;;;;;;7.05;3.20;;;;;;;18.85;100.00;93144.41;5103434;28;20444;-84
2022/06/06 02:30:48;;;;;;;5.97;3.17;;;;;;;18.82;100.00;93148.31;5103137;28;20482;-84
2022/06/06 02:33:17;;;;;;;6.90;3.83;;;;;;;18.78;100.00;93131.66;5103035;28;20044;-85
2022/06/06 02:35:44;;;;;;;10.27;4.22;;;;;;;18.87;100.00;93131.91;5102868;28;20139;-84
2022/06/06 02:38:13;;;;;;;9.50;3.42;;;;;;;18.88;100.00;93128.28;5100481;28;20040;-84
2022/06/06 02:40:41;;;;;;;10.27;4.30;;;;;;;18.81;100.00;93102.53;5101748;28;20486;-85
2022/06/06 02:43:07;;;;;;;10.45;3.35;;;;;;;18.93;100.00;93087.41;5102071;28;20054;-84
2022/06/06 02:45:34;;;;;;;10.32;3.95;;;;;;;18.78;100.00;93059.59;5101805;28;20109;-84
2022/06/06 02:48:01;;;;;;;6.07;2.40;;;;;;;18.77;100.00;93049.44;5101690;28;20095;-86
2022/06/06 02:50:32;;;;;;;7.65;2.83;;;;;;;18.73;100.00;93044.00;5101682;28;20040;-83
2022/06/06 02:52:59;;;;;;;7.22;2.78;;;;;;;18.68;100.00;93055.22;5100989;28;20090;-84
2022/06/06 02:55:27;;;;;;;5.72;2.33;;;;;;;18.75;100.00;93060.13;5100197;28;20075;-84
2022/06/06 02:57:55;;;;;;;9.27;3.80;;;;;;;18.75;100.00;93052.31;5099307;28;20048;-85
2022/06/06 03:00:25;;;;;;;8.48;3.55;;;;;;;18.71;100.00;93038.28;5101664;28;20109;-84
2022/06/06 03:02:52;;;;;;;8.00;3.38;;;;;;;18.77;100.00;93034.63;5101363;28;20101;-85
2022/06/06 03:05:19;;;;;;;9.45;3.42;;;;;;;18.73;100.00;93028.41;5101588;28;20039;-86
2022/06/06 03:08:06;;;;;;;8.25;3.70;;;;;;;18.77;100.00;93033.84;5101121;28;20092;-87
2022/06/06 03:10:49;;;;;;;6.72;3.15;;;;;;;18.77;100.00;93026.81;5099796;28;20131;-86
2022/06/06 03:13:28;;;;;;;9.82;4.00;;;;;;;18.72;100.00;93020.84;5100271;28;20036;-84
2022/06/06 03:22:02;;;;;;;10.70;3.00;;;;;;;18.65;100.00;93034.16;5101081;28;20149;-85
2022/06/06 03:24:40;;;;;;;7.50;3.03;;;;;;;18.61;100.00;93033.88;5099326;28;20089;-86
2022/06/06 03:27:24;;;;;;;8.82;3.35;;;;;;;18.41;100.00;92996.47;5101679;28;22402;-87
2022/06/06 03:30:02;;;;;;;10.95;3.47;;;;;;;18.68;100.00;93039.59;5100245;28;20097;-86
2022/06/06 03:32:42;;;;;;;7.80;3.40;;;;;;;18.74;100.00;93042.19;5099640;28;20127;-85
2022/06/06 03:35:16;;;;;;;7.32;3.40;;;;;;;18.77;100.00;93041.66;5100767;28;20417;-86
2022/06/06 03:37:52;;;;;;;9.63;3.83;;;;;;;18.79;100.00;93048.16;5101416;28;20092;-86
2022/06/06 03:40:31;;;;;;;8.98;2.58;;;;;;;18.80;100.00;93064.56;5099891;28;20089;-86
2022/06/06 03:43:03;;;;;;;11.90;4.45;;;;;;;18.79;100.00;93055.94;5101001;28;20047;-86
2022/06/06 03:45:39;;;;;;;8.68;3.00;;;;;;;18.83;100.00;93058.81;5101321;28;20040;-86
2022/06/06 03:48:18;;;;;;;8.98;3.58;;;;;;;18.84;100.00;93052.53;5099443;28;20044;-86
2022/06/06 03:50:49;;;;;;;6.97;2.92;;;;;;;18.79;100.00;93055.19;5101335;28;20473;-86
2022/06/06 03:53:22;;;;;;;6.53;3.03;;;;;;;18.83;100.00;93069.22;5101152;28;20093;-86
2022/06/06 03:56:03;;;;;;;6.90;2.90;;;;;;;18.70;100.00;93053.13;5098764;28;20512;-86
2022/06/06 03:58:33;;;;;;;7.47;3.00;;;;;;;18.82;100.00;93080.66;5100786;28;20051;-87
2022/06/06 04:01:03;;;;;;;9.52;3.72;;;;;;;18.66;100.00;93075.50;5100552;28;20052;-85
2022/06/06 04:03:33;;;;;;;11.57;4.25;;;;;;;18.58;100.00;93055.22;5101294;28;20040;-86
2022/06/06 04:06:03;;;;;;;7.43;3.58;;;;;;;18.56;100.00;93049.50;5100891;28;20051;-86
2022/06/06 04:08:32;;;;;;;11.40;3.85;;;;;;;18.54;100.00;93039.38;5100899;28;20642;-86
2022/06/06 04:11:11;;;;;;;10.35;3.83;;;;;;;18.70;100.00;93060.91;5100548;28;20106;-87
2022/06/06 04:13:52;;;;;;;9.65;3.80;;;;;;;18.59;100.00;93050.78;5098783;28;20121;-86
2022/06/06 04:16:31;;;;;;;8.35;5.03;;;;;;;18.47;100.00;93057.06;5100616;28;20050;-87
2022/06/06 04:19:12;;;;;;;11.65;4.57;;;;;;;18.49;100.00;93041.97;5099772;28;20130;-87
2022/06/06 04:21:49;;;;;;;7.32;3.85;;;;;;;18.62;100.00;93043.25;5099867;28;20051;-88
2022/06/06 04:24:35;;;;;;;14.25;4.70;;;;;;;18.52;100.00;93018.03;5099061;28;20555;-87
2022/06/06 04:27:14;;;;;;;12.52;4.68;;;;;;;18.81;100.00;93053.09;5099501;28;20071;-87
2022/06/06 04:29:48;;;;;;;15.75;5.10;;;;;;;18.85;100.00;93051.53;5099036;28;20578;-87
2022/06/06 04:32:26;;;;;;;10.40;4.93;;;;;;;18.98;100.00;93065.78;5099854;28;21120;-87
2022/06/06 04:35:00;;;;;;;17.60;5.10;;;;;;;19.06;100.00;93069.69;5098701;28;20040;-87
2022/06/06 04:37:35;;;;;;;11.90;4.80;;;;;;;19.16;100.00;93071.50;5098704;28;20048;-88
2022/06/06 04:40:10;;;;;;;7.93;3.42;;;;;;;19.23;100.00;93067.56;5099784;28;20051;-88
2022/06/06 04:42:46;;;;;;;10.18;3.70;;;;;;;19.32;100.00;93075.59;5100016;28;20101;-88
2022/06/06 04:45:26;;;;;;;;;;;;;;;19.41;100.00;93075.81;5099540;28;20051;-88
2022/06/06 04:47:55;;;;;;;11.65;4.38;;;;;;;19.45;100.00;93082.03;5097483;28;20279;-87
2022/06/06 04:50:24;;;;;;;8.35;4.15;;;;;;;19.54;100.00;93087.47;5097417;28;20118;-87
2022/06/06 04:52:55;;;;;;;7.63;3.50;;;;;;;19.50;100.00;93066.38;5100297;28;20484;-88
2022/06/06 04:55:24;;;;;;;8.07;3.38;;;;;;;19.70;100.00;93089.97;5099967;28;20044;-88
2022/06/06 04:57:57;;;;;;;9.15;3.35;;;;;;;19.82;100.00;93087.06;5100107;28;20069;-88
2022/06/06 05:00:26;;;;;;;13.10;3.97;;;;;;;19.85;100.00;93087.28;5100314;28;20039;-88
2022/06/06 05:02:53;;;;;;;16.80;4.25;;;;;;;19.84;100.00;93079.72;5100380;28;20126;-88
2022/06/06 05:05:28;;;;;;;9.70;3.45;;;;;;;19.97;100.00;93094.03;5100132;28;20497;-88
2022/06/06 05:08:11;;;;;;;15.20;3.60;;;;;;;20.06;100.00;93095.00;5100219;28;20508;-88
2022/06/06 05:10:56;;;;;;;9.77;3.42;;;;;;;20.13;100.00;93100.69;5099765;28;20306;-88
2022/06/06 05:13:40;;;;;;;7.50;3.63;;;;;;;20.10;100.00;93080.38;5099337;28;20047;-89
2022/06/06 05:16:30;;;;;;;7.72;2.88;;;;;;;20.40;100.00;93109.09;5099536;28;20067;-88
2022/06/06 05:19:10;;;;;;;9.13;3.65;;;;;;;20.35;100.00;93109.13;5099560;28;20044;-91
2022/06/06 05:22:01;;;;;;;9.90;3.10;;;;;;;20.46;100.00;93099.41;5099723;28;20048;-90
2022/06/06 05:24:42;;;;;;;10.07;4.00;;;;;;;20.75;100.00;93096.00;5098575;28;20440;-90
2022/06/06 05:27:34;;;;;;;9.88;3.53;;;;;;;20.92;100.00;93098.22;5101741;28;20040;-89
2022/06/06 05:30:08;;;;;;;7.65;2.72;;;;;;;21.03;100.00;93098.91;5100855;28;20109;-88
2022/06/06 05:32:59;;;;;;;7.82;3.13;;;;;;;21.31;100.00;93110.34;5101191;28;20486;-88
2022/06/06 05:39:34;;;;;;;7.85;2.72;;;;;;;21.43;100.00;93117.78;5105518;28;20047;-89
2022/06/06 05:42:16;;;;;;;4.88;2.55;;;;;;;21.76;100.00;93109.31;5104469;28;20055;-88
2022/06/06 05:44:52;;;;;;;9.75;2.42;;;;;;;22.10;100.00;93104.91;5103784;28;20058;-88
2022/06/06 05:47:31;;;;;;;6.38;2.65;;;;;;;22.28;100.00;93106.72;5102317;28;20551;-88
2022/06/06 05:50:17;;;;;;;7.18;2.38;;;;;;;22.39;100.00;93114.41;5103088;28;20043;-87
2022/06/06 05:53:02;;;;;;;7.72;2.17;;;;;;;22.38;100.00;93100.56;5103048;28;20066;-87
2022/06/06 05:55:37;;;;;;;;;;;;;;;22.11;100.00;93109.84;5104174;28;20101;-88
2022/06/06 05:58:33;;;;;;;9.45;3.83;;;;;;;21.79;100.00;93106.13;5101059;28;19931;-88
2022/06/06 06:01:16;;;;;;;9.80;2.63;;;;;;;21.93;100.00;93108.78;5101712;27;20035;-87
2022/06/06 06:04:08;;;;;;;8.35;3.55;;;;;;;22.01;100.00;93113.41;5103066;28;20047;-88
2022/06/06 06:06:42;;;;;;;15.60;3.40;;;;;;;22.28;100.00;93113.78;5101475;28;20052;-87
2022/06/06 06:09:24;;;;;;;7.85;2.83;;;;;;;21.96;100.00;93112.69;5102556;28;20044;-87
2022/06/06 06:12:11;;;;;;;7.15;2.97;;;;;;;21.74;100.00;93098.34;5101211;28;20036;-87
2022/06/06 06:14:50;;;;;;;11.50;3.45;;;;;;;22.04;100.00;93098.97;5101604;28;20067;-86
2022/06/06 06:17:20;;;;;;;9.18;3.17;;;;;;;22.47;100.00;93107.75;5103046;28;20071;-87
2022/06/06 06:19:57;;;;;;;7.47;2.80;;;;;;;22.54;100.00;93103.72;5102804;28;20048;-86
2022/06/06 06:22:28;;;;;;;6.70;3.15;;;;;;;22.68;100.00;93103.75;5101867;28;20052;-85
2022/06/06 06:25:00;;;;;;;8.27;3.00;;;;;;;22.83;100.00;93109.81;5102929;28;20479;-86
2022/06/06 06:27:29;;;;;;;8.52;3.05;;;;;;;22.73;100.00;93118.59;5102870;28;20044;-86
2022/06/06 06:29:57;;;;;;;11.85;2.60;;;;;;;22.78;100.00;93120.38;5102548;28;20036;-86
2022/06/06 06:32:39;;;;;;;10.20;3.20;;;;;;;22.90;100.00;93106.78;5102515;28;20047;-85
2022/06/06 06:35:17;;;;;;;13.52;3.22;;;;;;;23.11;100.00;93116.91;5100310;28;20547;-85
2022/06/06 06:38:03;;;;;;;13.43;3.30;;;;;;;23.31;100.00;93118.34;5101934;28;20059;-85
2022/06/06 06:40:44;;;;;;;9.13;3.83;;;;;;;23.24;100.00;93116.16;5101897;28;20079;-85
2022/06/06 06:43:20;;;;;;;12.43;4.25;;;;;;;23.04;100.00;93115.44;5101165;28;20059;-85
2022/06/06 06:45:51;;;;;;;7.75;3.45;;;;;;;23.26;100.00;93103.50;5101609;28;20052;-84
2022/06/06 06:48:23;;;;;;;12.90;3.70;;;;;;;23.49;100.00;93099.16;5102733;28;20071;-85
2022/06/06 06:51:00;;;;;;;11.68;4.22;;;;;;;22.96;100.00;93101.19;5102305;28;20596;-84
2022/06/06 06:53:43;;;;;;;12.05;4.15;;;;;;;22.86;100.00;93090.88;5101029;28;20089;-84
2022/06/06 06:56:22;;;;;;;10.63;3.55;;;;;;;23.20;100.00;93079.25;5100913;28;20040;-85
2022/06/06 06:58:53;;;;;;;14.52;4.20;;;;;;;23.80;100.00;93083.84;5101696;28;20048;-84
2022/06/06 07:01:30;;;;;;;7.25;3.30;;;;;;;24.07;92.50;93069.09;5101946;28;20048;-84
2022/06/06 07:10:12;;;;;;;16.08;3.88;;;;;;;25.82;93.15;93041.97;5101688;28;20500;-83
2022/06/06 07:13:12;;;;;;;10.48;3.17;;;;;;;26.40;80.73;93056.81;5102277;28;20514;-84
2022/06/06 07:15:45;;;;;;;9.00;2.75;;;;;;;26.53;79.83;93032.13;5101928;28;20082;-83
2022/06/06 07:18:16;;;;;;;8.20;2.95;;;;;;;26.94;74.02;93058.97;5099793;28;20515;-85
2022/06/06 07:20:45;;;;;;;15.95;3.45;;;;;;;27.29;75.82;93038.81;5099731;28;20101;-84
2022/06/06 07:23:15;;;;;;;8.52;2.88;;;;;;;27.60;77.00;93045.63;5099547;28;20048;-84
2022/06/06 07:25:44;;;;;;;9.13;2.83;;;;;;;27.88;75.09;93043.25;5101262;28;20113;-83
2022/06/06 07:28:13;;;;;;;11.05;3.00;;;;;;;28.13;74.36;93042.56;5100636;28;20527;-84
2022/06/06 07:30:48;;;;;;;8.57;3.22;;;;;;;28.23;67.70;93050.13;5101198;28;20062;-84
2022/06/06 07:33:28;;;;;;;10.25;3.28;;;;;;;28.34;69.88;93057.63;5099618;28;20040;-84
2022/06/06 07:36:09;;;;;;;11.40;3.15;;;;;;;28.61;69.90;93068.72;5101065;28;20505;-84
2022/06/06 07:38:58;;;;;;;10.40;2.60;;;;;;;28.72;65.56;93069.06;5094086;28;20053;-85
2022/06/06 07:41:30;;;;;;;10.95;2.63;;;;;;;28.77;65.73;93059.06;5090491;28;20563;-85
2022/06/06 07:44:21;;;;;;;5.97;2.17;;;;;;;28.66;64.55;93036.78;5097281;28;20051;-84
2022/06/06 07:47:01;;;;;;;9.70;2.97;;;;;;;28.94;60.79;93067.91;5092105;28;20040;-86
2022/06/06 07:49:40;;;;;;;11.05;3.15;;;;;;;28.79;59.80;93064.03;5101205;28;20051;-85
2022/06/06 07:52:15;;;;;;;11.88;3.08;;;;;;;29.01;64.31;93064.72;5098469;28;20112;-85
2022/06/06 07:54:52;;;;;;;9.37;2.77;;;;;;;28.78;61.59;93068.53;5100288;28;20403;-86
2022/06/06 07:57:30;;;;;;;7.90;2.65;;;;;;;28.05;58.54;93070.59;5098980;28;20284;-87
2022/06/06 08:00:05;;;;;;;10.75;2.60;;;;;;;27.63;67.02;93063.44;5100473;28;20094;-86
2022/06/06 08:02:54;;;;;;;12.38;2.80;;;;;;;27.35;63.33;93064.69;5101181;28;20535;-86
2022/06/06 08:05:35;;;;;;;10.52;2.70;;;;;;;26.91;65.71;93064.09;5096880;28;20093;-85
2022/06/06 08:08:12;;;;;;;14.52;3.45;;;;;;;26.97;66.55;93062.84;5100878;28;20039;-84
2022/06/06 08:10:42;;;;;;;11.10;3.25;;;;;;;27.46;67.98;93056.41;5099090;28;20044;-85
2022/06/06 08:13:30;;;;;;;11.95;4.05;;;;;;;26.65;66.70;93052.56;5099653;28;20402;-87
2022/06/06 08:16:16;;;;;;;13.38;4.20;;;;;;;25.72;74.36;93035.16;5099624;28;20483;-86
2022/06/06 08:19:09;;;;;;;14.50;4.10;;;;;;;26.06;74.01;93053.13;5098669;28;20056;-86
2022/06/06 08:21:39;;;;;;;18.15;4.47;;;;;;;26.12;76.16;93062.41;5097361;28;20043;-86
2022/06/06 08:24:12;;;;;;;16.70;5.53;;;;;;;25.83;73.14;93058.53;5101350;28;20067;-85
2022/06/06 08:26:42;;;;;;;13.73;4.20;;;;;;;25.97;75.78;93061.03;5098424;28;20101;-86
2022/06/06 08:29:10;;;;;;;13.52;4.60;;;;;;;26.10;74.21;93054.81;5098443;28;20040;-86
2022/06/06 08:31:37;;;;;;;14.63;4.78;;;;;;;26.24;73.23;93059.16;5099286;28;20510;-86
2022/06/06 08:34:04;;;;;;;13.30;4.63;;;;;;;25.91;72.71;93070.16;5099276;28;20066;-87
2022/06/06 08:36:57;;;;;;;12.10;3.35;;;;;;;26.12;71.62;93067.66;5099459;28;20043;-86
2022/06/06 08:39:31;;;;;;;16.63;4.40;;;;;;;26.34;71.93;93071.97;5100927;28;20086;-86
2022/06/06 08:42:32;;;;;;;12.70;2.90;;;;;;;26.46;69.64;93079.25;5093841;28;20048;-85
2022/06/06 08:45:23;;;;;;;15.98;4.90;;;;;;;26.28;70.37;93070.59;5098765;28;20559;-85
2022/06/06 08:48:02;;;;;;;9.43;3.70;;;;;;;26.37;68.97;93076.63;5093257;28;20053;-86
2022/06/06 08:50:46;;;;;;;13.10;3.53;;;;;;;25.96;67.04;93056.84;5096998;28;20050;-85
2022/06/06 08:53:53;;;;;;;10.55;4.40;;;;;;;25.95;68.72;93063.94;5098308;28;20052;-86
2022/06/06 08:57:01;;;;;;;10.50;3.35;;;;;;;26.18;68.98;93045.34;5099244;28;20048;-85
2022/06/06 09:00:05;;;;;;;10.80;3.50;;;;;;;26.58;66.67;93062.03;5096948;28;20047;-85
2022/06/06 09:03:10;;;;;;;12.98;3.53;;;;;;;26.46;62.72;93070.56;5097433;28;20059;-86
2022/06/06 09:06:03;;;;;;;;;;;;;;;26.39;66.98;93061.28;5099924;28;20054;-85
2022/06/06 09:09:05;;;;;;;11.05;2.97;;;;;;;26.93;68.33;93067.19;5098179;28;19920;-84
2022/06/06 09:12:08;;;;;;;9.10;3.63;;;;;;;27.45;68.91;93054.88;5099003;28;20123;-85
2022/06/06 09:15:12;;;;;;;6.40;3.92;;;;;;;27.85;65.17;93065.00;5099096;28;20048;-86
2022/06/06 09:18:20;;;;;;;11.10;3.35;;;;;;;28.25;64.35;93065.63;5099529;28;20039;-85
2022/06/06 09:21:17;;;;;;;11.35;3.78;;;;;;;28.72;61.14;93056.63;5099316;28;20630;-85
2022/06/06 09:24:29;;;;;;;8.13;2.70;;;;;;;29.00;62.54;93068.44;5097179;28;20437;-85
2022/06/06 09:27:21;;;;;;;9.35;3.00;;;;;;;28.93;59.47;93066.38;5099260;28;20548;-86
2022/06/06 09:30:09;;;;;;;7.47;2.92;;;;;;;27.39;64.38;93066.69;5098594;28;20040;-85
2022/06/06 09:33:11;;;;;;;6.28;2.45;;;;;;;28.07;65.56;93059.72;5098247;28;20048;-88
2022/06/06 09:35:46;;;;;;;10.35;3.38;;;;;;;28.20;64.20;93055.25;5099158;28;20444;-86
2022/06/06 09:38:20;;;;;;;7.28;2.50;;;;;;;27.67;63.34;93045.13;5099691;28;20706;-86
2022/06/06 09:41:23;;;;;;;10.68;3.22;;;;;;;28.09;63.82;93039.81;5095775;28;20116;-89
2022/06/06 09:44:04;;;;;;;9.90;2.92;;;;;;;26.88;67.95;93039.16;5098671;28;20056;-88
2022/06/06 09:47:27;;;;;;;8.77;3.10;;;;;;;26.14;80.85;93023.38;5093589;28;20044;-87
2022/06/06 09:50:41;;;;;;;12.27;3.17;;;;;;;26.34;82.57;93026.47;5098923;28;20074;-88
2022/06/06 09:59:01;;;;;;;10.63;3.00;;;;;;;25.87;82.85;93028.66;5016743;28;20112;-88
2022/06/06 10:00:11;;;;;;;8.90;3.30;;;;;;;26.06;81.51;93014.41;5098842;28;20147;-87
2022/06/06 10:03:12;;;;;;;8.45;3.00;;;;;;;26.27;76.85;93004.03;5098245;28;20093;-85
2022/06/06 10:06:09;;;;;;;6.03;2.47;;;;;;;25.47;82.19;92991.97;5098387;28;20085;-90
2022/06/06 10:09:13;;;;;;;9.15;3.00;;;;;;;24.88;82.87;93016.75;5093969;28;20560;-86
2022/06/06 10:12:20;;;;;;;6.32;2.80;;;;;;;24.68;85.14;92980.19;5097600;28;20056;-88
2022/06/06 10:15:04;;;;;;;6.35;2.38;;;;;;;24.67;86.45;93006.78;5096327;28;20056;-87
2022/06/06 10:17:56;;;;;;;8.30;3.10;;;;;;;24.44;83.44;93024.41;5098637;28;20155;-86
2022/06/06 10:20:50;;;;;;;8.00;2.33;;;;;;;24.37;82.58;93024.84;5097640;28;20040;-88
2022/06/06 10:23:34;;;;;;;6.17;2.50;;;;;;;23.99;81.11;93037.25;5095139;28;20505;-86
2022/06/06 10:26:27;;;;;;;8.00;2.78;;;;;;;23.63;83.37;93030.19;5102154;28;20092;-84
2022/06/06 10:30:10;;;;;;;6.63;2.75;;;;;;;22.79;89.99;93036.28;5089439;28;20090;-89
2022/06/06 10:32:33;;;;;;;4.40;2.70;;;;;;;22.25;89.04;93028.03;5101535;28;20059;-86
2022/06/06 10:35:20;;;;;;;6.65;3.20;;;;;;;22.10;89.26;93035.06;5101938;28;20047;-90
2022/06/06 10:38:02;;;;;;;5.35;3.05;;;;;;;21.81;88.51;93033.41;5101634;28;20047;-89
2022/06/06 10:40:52;;;;;;;5.97;2.60;;;;;;;22.24;87.44;93039.56;5101108;28;20052;-85
2022/06/06 10:43:39;;;;;;;5.50;2.88;;;;;;;22.04;85.99;93044.06;5101356;28;20065;-86
2022/06/06 10:46:11;;;;;;;6.20;3.78;;;;;;;21.49;87.24;93069.59;5101810;28;20092;-86
2022/06/06 10:48:55;;;;;;;7.55;3.20;;;;;;;21.41;90.58;93053.78;5101992;28;20460;-87
2022/06/06 10:51:52;;;;;;;4.05;2.53;;;;;;;21.10;94.79;93049.72;5101880;28;20043;-87
2022/06/06 10:55:09;;;;;;;6.07;3.30;;;;;;;20.62;100.00;93040.03;5100936;28;20055;-90
2022/06/06 10:58:19;;;;;;;6.88;2.97;;;;;;;19.85;100.00;93050.00;5065142;28;20101;-86
2022/06/06 11:01:15;;;;;;;7.22;3.08;;;;;;;19.33;100.00;93004.22;5100400;28;20486;-85
2022/06/06 11:04:08;;;;;;;7.07;4.50;;;;;;;19.19;100.00;92996.22;5084678;28;20097;-83
2022/06/06 11:07:13;;;;;;;9.38;3.97;;;;;;;18.64;100.00;93009.16;5099360;28;20082;-82
2022/06/06 11:10:18;;;;;;;6.80;3.63;;;;;;;18.66;100.00;93002.66;5101437;28;20047;-82
2022/06/06 11:13:12;;;;;;;6.35;3.60;;;;;;;18.06;100.00;93000.69;5099735;28;20048;-80
2022/06/06 11:15:46;;;;;;;5.80;3.50;;;;;;;18.16;100.00;92989.50;5101392;28;20117;-81
2022/06/06 11:18:53;;;;;;;5.43;4.15;;;;;;;18.10;100.00;93013.94;5098784;28;20040;-83
2022/06/06 11:21:42;;;;;;;6.85;4.53;;;;;;;18.38;100.00;93017.78;5100989;28;20044;-85
2022/06/06 11:24:18;;;;;;;6.78;4.60;;;;;;;18.55;100.00;92991.50;5100329;28;20062;-88
2022/06/06 11:27:04;;;;;;;6.82;3.72;;;;;;;18.75;100.00;93020.31;5099542;28;20054;-86
2022/06/06 11:29:45;;;;;;;6.53;3.75;;;;;;;18.47;100.00;92986.81;5099448;28;20101;-81
2022/06/06 11:32:42;;;;;;;6.40;3.38;;;;;;;18.43;100.00;92991.78;5100154;28;20039;-87
2022/06/06 11:35:28;;;;;;;6.30;3.10;;;;;;;18.30;100.00;92990.50;5100974;28;20048;-84
2022/06/06 11:38:07;;;;;;;;;;;;;;;18.41;100.00;93013.91;5100568;28;20123;-85
2022/06/06 11:41:04;;;;;;;6.85;3.60;;;;;;;18.23;100.00;93033.44;5098678;28;19966;-84
2022/06/06 11:44:13;;;;;;;6.30;3.75;;;;;;;18.23;100.00;93036.03;5100403;28;20456;-83
2022/06/06 11:47:19;;;;;;;8.20;3.97;;;;;;;18.47;100.00;93051.84;5100036;28;20048;-83
2022/06/06 11:50:18;;;;;;;6.55;4.35;;;;;;;18.40;100.00;93049.53;5066550;28;20044;-83
2022/06/06 11:53:24;;;;;;;6.22;3.83;;;;;;;18.33;100.00;93043.03;5100049;28;20124;-83
2022/06/06 11:56:01;;;;;;;6.93;5.07;;;;;;;18.01;100.00;92993.63;5099058;28;20085;-82
2022/06/06 11:59:04;;;;;;;8.80;4.22;;;;;;;18.25;100.00;93032.13;5100023;28;20048;-85
2022/06/06 12:01:49;;;;;;;6.43;4.57;;;;;;;18.26;100.00;93025.09;5099893;28;20047;-83
2022/06/06 12:04:42;;;;;;;7.57;4.38;;;;;;;18.35;100.00;93020.94;5100178;28;20142;-81
2022/06/06 12:08:00;;;;;;;6.07;4.28;;;;;;;18.41;100.00;93027.69;5095020;28;20040;-90
2022/06/06 12:10:36;;;;;;;6.65;4.85;;;;;;;18.51;100.00;93018.31;5069872;28;20446;-87
2022/06/06 12:13:41;;;;;;;7.75;4.53;;;;;;;18.60;100.00;93021.91;5092905;28;20067;-85
2022/06/06 12:16:28;;;;;;;7.72;5.35;;;;;;;18.66;100.00;93012.28;5099624;28;20040;-83
2022/06/06 12:19:13;;;;;;;7.18;5.45;;;;;;;18.66;100.00;93014.91;5098641;28;20048;-84
2022/06/06 12:22:03;;;;;;;8.98;5.60;;;;;;;18.69;100.00;93002.13;5098777;28;20040;-87
2022/06/06 12:25:04;;;;;;;7.80;5.13;;;;;;;18.87;100.00;92992.19;5099573;28;20036;-84
2022/06/06 12:27:49;;;;;;;8.95;6.05;;;;;;;18.96;100.00;92987.19;5100770;28;20036;-85
2022/06/06 12:30:46;;;;;;;8.25;5.28;;;;;;;19.00;100.00;93029.06;5098891;28;20135;-85
2022/06/06 12:33:18;;;;;;;6.57;4.47;;;;;;;19.10;100.00;93018.66;5098765;28;20093;-85
2022/06/06 12:35:58;;;;;;;11.43;6.80;;;;;;;19.20;100.00;93023.81;5099088;28;20036;-83
2022/06/06 12:38:41;;;;;;;10.32;6.63;;;;;;;19.06;100.00;93048.88;5100617;28;20075;-83
2022/06/06 12:41:37;;;;;;;9.48;5.90;;;;;;;19.04;100.00;93043.94;5099573;28;20048;-88
2022/06/06 12:44:22;;;;;;;11.43;7.75;;;;;;;19.15;100.00;93038.69;5098425;28;20040;-83
2022/06/06 12:47:08;;;;;;;;;;;;;;;19.36;100.00;93028.97;5099695;28;20048;-87
2022/06/06 12:49:53;;;;;;;8.18;4.88;;;;;;;19.35;100.00;93020.34;5099336;28;19950;-92
2022/06/06 12:52:37;;;;;;;;;;;;;;;19.57;100.00;92995.75;5100267;28;20045;-84
2022/06/06 12:58:17;;;;;;;7.00;4.20;;;;;;;19.54;100.00;92996.31;5098580;28;20170;-86